• Join FlightAware (Why Join?)
  • Login
  • US Flag 
01:56AM EST


 

Airport Tracker/Info


-or-


 

Live Flight TrackerFlight Track Log ✈ VH-MWO ✈ 06-May-2013 ✈ YPKU / KNX - YDBY / DRB

Flight Track Log - Related Links

Times and Time Zones

All times are in EDT time to prevent confusion due to time zone crossing. See the VH-MWO flight status page for this flight to view local times or setup timezone preferences in your user account.

Time Position Orientation Groundspeed Altitude Reporting Facility
EDT Latitude Longitude Course Direction KTS MPH feet Rate Location/Type
02:31AM -15.7959 128.6454 252° West 24,000  Level Aus ATC (Calculated)
02:31AM -15.8163 128.5820 251° West 24,000  Level Aus ATC (Calculated)
02:33AM -15.8380 128.5163 251° West  Level FlightAware Approximate
02:34AM -15.8574 128.4574 251° West  Level FlightAware Approximate
02:34AM -15.8773 128.3915 85° East 24,000  Level Aus ATC (Calculated)
02:35AM -15.8768 128.3985 251° West  Level FlightAware Approximate
02:36AM -15.8990 128.3258 251° West  Level FlightAware Approximate
02:37AM -15.9184 128.2668 251° West  Level FlightAware Approximate
02:37AM -15.9179 128.2645 250° West 24,000  Level Aus ATC (Calculated)
02:38AM -15.9377 128.2079 251° West  Level FlightAware Approximate
02:39AM -15.9402 128.1967 251° West  Level FlightAware Approximate
02:40AM -15.9596 128.1378 251° West  Level FlightAware Approximate
02:40AM -15.9787 128.0738 93° East 24,000  Level Aus ATC (Calculated)
02:41AM -15.9789 128.0789 251° West  Level FlightAware Approximate
02:42AM -16.0029 128.0002 251° West  Level FlightAware Approximate
02:43AM -16.0222 127.9412 251° West  Level FlightAware Approximate
02:43AM -16.0393 127.8831 251° West 24,000  Level Aus ATC (Calculated)
02:45AM -16.0634 127.8094 251° West  Level FlightAware Approximate
02:46AM -16.0827 127.7504 251° West  Level FlightAware Approximate
02:46AM -16.0997 127.6922 198° South 24,000  Level Aus ATC (Calculated)
02:47AM -16.1020 127.6914 251° West  Level FlightAware Approximate
02:48AM -16.1238 127.6184 251° West  Level FlightAware Approximate
02:49AM -16.1431 127.5594 251° West  Level FlightAware Approximate
02:49AM -16.1399 127.5649 250° West 24,000  Level Aus ATC (Calculated)
02:50AM -16.1624 127.5004 251° West  Level FlightAware Approximate
02:51AM -16.1643 127.4901 251° West  Level FlightAware Approximate
02:52AM -16.1836 127.4311 251° West  Level FlightAware Approximate
02:53AM -16.2028 127.3721 251° West  Level FlightAware Approximate
02:54AM -16.2220 127.3130 251° West  Level FlightAware Approximate
02:54AM -16.2401 127.2464 251° West 24,000  Level Aus ATC (Calculated)
02:56AM -16.2644 127.1716 251° West  Level FlightAware Approximate
02:57AM -16.2836 127.1125 251° West  Level FlightAware Approximate
02:58AM -16.3029 127.0534 251° West  Level FlightAware Approximate
02:59AM -16.3220 126.9943 251° West  Level FlightAware Approximate
02:59AM -16.3397 126.9275 101° East 24,000  Level Aus ATC (Calculated)
03:00AM -16.3412 126.9352 251° West  Level FlightAware Approximate
03:01AM -16.3644 126.8517 251° West  Level FlightAware Approximate
03:02AM -16.3836 126.7926 251° West  Level FlightAware Approximate
03:03AM -16.4028 126.7335 251° West  Level FlightAware Approximate
03:04AM -16.4219 126.6743 251° West  Level FlightAware Approximate
03:04AM -16.4191 126.6722 251° West 24,000  Level Aus ATC (Calculated)
03:06AM -16.4438 126.5964 251° West  Level FlightAware Approximate
03:07AM -16.4629 126.5372 251° West  Level FlightAware Approximate
03:07AM -16.4587 126.5445 251° West 24,000  Level Aus ATC (Calculated)
03:09AM -16.4955 126.4312 251° West  Level FlightAware Approximate
03:09AM -16.5179 126.3528 252° West 24,000  Level Aus ATC (Calculated)
03:10AM -16.5376 126.2889 247° West 24,000  Level Aus ATC (Calculated)
03:11AM -16.5429 126.2759 251° West  Level FlightAware Approximate
03:12AM -16.5680 126.1952 251° West  Level FlightAware Approximate
03:12AM -16.5769 126.1610 251° West 24,000  Level Aus ATC (Calculated)
03:14AM -16.6019 126.0841 251° West  Level FlightAware Approximate
03:14AM -16.5966 126.0971 251° West 24,000  Level Aus ATC (Calculated)
03:16AM -16.6315 125.9896 251° West  Level FlightAware Approximate
03:16AM -16.6358 125.9691 360° North 24,000  Level Aus ATC (Calculated)
03:16AM -16.6358 125.9691 251° West 24,000  Level Aus ATC (Calculated)
03:18AM -16.6576 125.9020 251° West  Level FlightAware Approximate
03:18AM -16.6750 125.8411 251° West 24,000  Level Aus ATC (Calculated)
03:20AM -16.7100 125.7336 251° West  Level FlightAware Approximate
03:21AM -16.7292 125.6744 251° West  Level FlightAware Approximate
03:21AM -16.7335 125.6490 245° Southwest 24,000  Level Aus ATC (Calculated)
03:22AM -16.7484 125.6152 251° West  Level FlightAware Approximate
03:23AM -16.7574 125.5760 251° West  Level FlightAware Approximate
03:24AM -16.7767 125.5168 251° West  Level FlightAware Approximate
03:25AM -16.7960 125.4576 251° West  Level FlightAware Approximate
03:26AM -16.8152 125.3984 251° West  Level FlightAware Approximate
03:26AM -16.8308 125.3285 110° East 24,000  Level Aus ATC (Calculated)
03:27AM -16.8345 125.3392 251° West  Level FlightAware Approximate
03:28AM -16.8548 125.2556 251° West  Level FlightAware Approximate
03:29AM -16.8742 125.1964 251° West  Level FlightAware Approximate
03:30AM -16.8937 125.1372 251° West  Level FlightAware Approximate
03:31AM -16.9131 125.0780 251° West  Level FlightAware Approximate
03:31AM -16.9082 125.0719 244° Southwest 24,000  Level Aus ATC (Calculated)
03:32AM -16.9324 125.0188 251° West  Level FlightAware Approximate
03:33AM -16.9327 124.9980 251° West  Level FlightAware Approximate
03:34AM -16.9524 124.9389 251° West  Level FlightAware Approximate
03:35AM -16.9720 124.8798 251° West  Level FlightAware Approximate
03:35AM -16.9853 124.8151 253° West 24,000  Level Aus ATC (Calculated)
03:36AM -17.0045 124.7509 241° Southwest 24,000  Level Aus ATC (Calculated)
03:37AM -17.0116 124.7374 251° West  Level FlightAware Approximate
03:38AM -17.0296 124.6771 250° West  Level FlightAware Approximate
03:39AM -17.0496 124.6181 250° West  Level FlightAware Approximate
03:39AM -17.0636 124.5624 208° Southwest 600  Level Aus ATC (Calculated)
03:40AM -17.0696 124.5591 250° West  Level FlightAware Approximate
03:41AM -17.0889 124.4887 250° West  Level FlightAware Approximate
03:41AM -17.0842 124.5024 250° West 600  Level Aus ATC (Calculated)
03:42AM -17.1092 124.4298 250° West  Level FlightAware Approximate
03:43AM -17.1234 124.3885 250° West  Level FlightAware Approximate
03:43AM -17.1666 124.2623 70° East 600  Level Aus ATC (Calculated)
03:44AM -17.1436 124.3295 250° West  Level FlightAware Approximate
03:45AM -17.1871 124.2023 250° West  Level FlightAware Approximate
03:46AM -17.2073 124.1433 250° West  Level FlightAware Approximate
03:46AM -17.2282 124.0821 70° East 600  Level Aus ATC (Calculated)
03:47AM -17.2275 124.0843 250° West  Level FlightAware Approximate
03:48AM -17.2487 124.0221 250° West  Level FlightAware Approximate
03:48AM -17.2692 123.9619 70° East 600  Level Aus ATC (Calculated)
03:49AM -17.2688 123.9630 250° West  Level FlightAware Approximate
03:50AM -17.2930 123.8920 250° West  Level FlightAware Approximate
03:51AM -17.3131 123.8329 250° West  Level FlightAware Approximate
03:51AM -17.3510 123.7213 75° East 600  Level Aus ATC (Calculated)
03:51AM -17.3510 123.7213 70° East 600  Level Aus ATC (Calculated)
03:52AM -17.3332 123.7738 250° West  Level FlightAware Approximate
03:53AM -17.3700 123.6606 250° West  Level Estimated
03:54AM -17.3700 123.6606 159° South  Level Estimated
03:55AM -17.3700 123.6606 159° South  Level Estimated
03:56AM -17.3700 123.6606 159° South  Level Estimated
03:57AM -17.3700 123.6606 159° South  Level Estimated
03:58AM -17.3700 123.6606 159° South  Level Estimated
03:59AM -17.3714 123.6611 251° West  Level FlightAware Approximate
04:00AM -17.3700 123.6606 251° West  Level Estimated
04:01AM -17.3714 123.6611 251° West  Level FlightAware Approximate
04:02AM -17.3700 123.6606 251° West  Level Estimated